| State | Nebraska | Latest | Unknown (167 cfs) | |
| River | Platte River | Rating | Observed | Estimated |
| Updated | 2026-05-05 9:30 (20 minutes ago) | Flood - The river is flooding. Obstacles can be treacherous or deadly. The river should be avoided at this stage for casual trips and definitely for the inexperienced. Trips should be attempted only with protective gear and equipment.Flood | (none) | (none) |
| Discharge | 167 cfs (median: 1680 cfs) | High - The river is high and potentially dangerous, especially for the young and / or inexperienced. Normal stream obstacles are sometimes difficult to navigate. Extended distances can be attempted, but canoe travel may not be advisable.High | (none) | (none) |
| Height | 3.34 feet | Good - Conditions are ideal for a canoe or kayak. Boats typically will drag on fewer than one-quarter of riffles, if at all, and portages are unnecessary or rare. Normal float lengths can be attempted without a problem.Good | (none) | (none) |
| Trend | Rising (rising over 24 hours) | Low - River is low but can still be floated. Some riffles are okay but most come with significant dragging and might need a portage. Float lengths should be reduced to accommodate low flow, dragging, and portages.Low | (none) | (none) |
| USGS | USGS Site ( Duck Duck Go Maps) | Poor - River is too low to float comfortably. Most or all riffles will drag or must be portaged and some obstacles (such as slick shelf rock) cause undue problems. Avoid the river at this stage for casual paddling trips.Poor | (none) | (none) |
| Date | Start | End | Distance | Condition | Discharge | Height | Fishing | Details |
|---|
A total of 0 rows are displayed.
BLG - Bluegill
CCF - Channel Catfish
CP - Chain Pickerel
FWD - Freshwater Drum
GSF - Green Sunfish
KSB - Kentucky Spotted Bass
LMB - Largemouth Bass
LSF - Longear Sunfish
RB - Rock Bass / Goggle Eye
RSF - Redear Sunfish
RT - Rainbow Trout
SMB - Smallmouth Bass
WB - White Bass
WF - Whitefish
WL - WalleyeThe classic River Trips application is still available for use. It is updated with the new system using a data retrofit. It is no longer maintained. The original River Trips application is no longer updated (as of 1 Dec 2016) but can be checked for errors or for the condition of the data before it was converted to the new system.
| Observation | Height | Discharge | Maximum Discharge | Minimum Discharge | Mean Discharge | P05 | P10 | P20 | P25 | P50 (Median) | P75 | P80 | P90 | P95 |
|---|---|---|---|---|---|---|---|---|---|---|---|---|---|---|
| 2026-05-05 09:30 | 3.34 | 167 | 17500 (1984) | 131 (2023) | 2350 | 241 | 460 | 790 | 1000 | 1680 | 2670 | 3040 | 4970 | 5700 |
| 2026-05-05 08:30 | 3.33 | 161 | 17500 (1984) | 131 (2023) | 2350 | 241 | 460 | 790 | 1000 | 1680 | 2670 | 3040 | 4970 | 5700 |
| 2026-05-05 07:30 | 3.33 | 161 | 17500 (1984) | 131 (2023) | 2350 | 241 | 460 | 790 | 1000 | 1680 | 2670 | 3040 | 4970 | 5700 |
| 2026-05-05 06:30 | 3.34 | 167 | 17500 (1984) | 131 (2023) | 2350 | 241 | 460 | 790 | 1000 | 1680 | 2670 | 3040 | 4970 | 5700 |
| 2026-05-05 05:30 | 3.32 | 156 | 17500 (1984) | 131 (2023) | 2350 | 241 | 460 | 790 | 1000 | 1680 | 2670 | 3040 | 4970 | 5700 |
| 2026-05-05 04:30 | 3.33 | 161 | 17500 (1984) | 131 (2023) | 2350 | 241 | 460 | 790 | 1000 | 1680 | 2670 | 3040 | 4970 | 5700 |
| 2026-05-05 03:30 | 3.34 | 167 | 17500 (1984) | 131 (2023) | 2350 | 241 | 460 | 790 | 1000 | 1680 | 2670 | 3040 | 4970 | 5700 |
| 2026-05-05 02:30 | 3.33 | 161 | 17500 (1984) | 131 (2023) | 2350 | 241 | 460 | 790 | 1000 | 1680 | 2670 | 3040 | 4970 | 5700 |
| 2026-05-05 01:30 | 3.32 | 156 | 17500 (1984) | 131 (2023) | 2350 | 241 | 460 | 790 | 1000 | 1680 | 2670 | 3040 | 4970 | 5700 |
| 2026-05-05 00:30 | 3.33 | 161 | 17500 (1984) | 131 (2023) | 2350 | 241 | 460 | 790 | 1000 | 1680 | 2670 | 3040 | 4970 | 5700 |
| 2026-05-04 23:30 | 3.32 | 156 | 17500 (1984) | 131 (2023) | 2350 | 241 | 460 | 790 | 1000 | 1680 | 2670 | 3040 | 4970 | 5700 |
| 2026-05-04 22:30 | 3.32 | 156 | 18000 (1984) | 123 (2023) | 2260 | 281 | 492 | 795 | 977 | 1720 | 2870 | 3020 | 4470 | 6200 |
| 2026-05-04 21:30 | 3.33 | 161 | 18000 (1984) | 123 (2023) | 2260 | 281 | 492 | 795 | 977 | 1720 | 2870 | 3020 | 4470 | 6200 |
| 2026-05-04 20:30 | 3.31 | 151 | 18000 (1984) | 123 (2023) | 2260 | 281 | 492 | 795 | 977 | 1720 | 2870 | 3020 | 4470 | 6200 |
| 2026-05-04 19:30 | 3.32 | 156 | 18000 (1984) | 123 (2023) | 2260 | 281 | 492 | 795 | 977 | 1720 | 2870 | 3020 | 4470 | 6200 |
| 2026-05-04 18:30 | 3.33 | 161 | 18000 (1984) | 123 (2023) | 2260 | 281 | 492 | 795 | 977 | 1720 | 2870 | 3020 | 4470 | 6200 |
| 2026-05-04 17:30 | 3.33 | 161 | 18000 (1984) | 123 (2023) | 2260 | 281 | 492 | 795 | 977 | 1720 | 2870 | 3020 | 4470 | 6200 |
| 2026-05-04 16:30 | 3.34 | 167 | 18000 (1984) | 123 (2023) | 2260 | 281 | 492 | 795 | 977 | 1720 | 2870 | 3020 | 4470 | 6200 |
| 2026-05-04 15:30 | 3.32 | 156 | 18000 (1984) | 123 (2023) | 2260 | 281 | 492 | 795 | 977 | 1720 | 2870 | 3020 | 4470 | 6200 |
| 2026-05-04 14:30 | 3.35 | 173 | 18000 (1984) | 123 (2023) | 2260 | 281 | 492 | 795 | 977 | 1720 | 2870 | 3020 | 4470 | 6200 |
| 2026-05-04 13:30 | 3.35 | 173 | 18000 (1984) | 123 (2023) | 2260 | 281 | 492 | 795 | 977 | 1720 | 2870 | 3020 | 4470 | 6200 |
| 2026-05-04 12:30 | 3.34 | 167 | 18000 (1984) | 123 (2023) | 2260 | 281 | 492 | 795 | 977 | 1720 | 2870 | 3020 | 4470 | 6200 |
| 2026-05-04 11:30 | 3.34 | 167 | 18000 (1984) | 123 (2023) | 2260 | 281 | 492 | 795 | 977 | 1720 | 2870 | 3020 | 4470 | 6200 |
| 2026-05-04 10:30 | 3.34 | 167 | 18000 (1984) | 123 (2023) | 2260 | 281 | 492 | 795 | 977 | 1720 | 2870 | 3020 | 4470 | 6200 |
| 2026-05-04 09:30 | 3.34 | 167 | 18000 (1984) | 123 (2023) | 2260 | 281 | 492 | 795 | 977 | 1720 | 2870 | 3020 | 4470 | 6200 |
| 2026-05-04 08:30 | 3.32 | 156 | 18000 (1984) | 123 (2023) | 2260 | 281 | 492 | 795 | 977 | 1720 | 2870 | 3020 | 4470 | 6200 |
| 2026-05-04 07:30 | 3.33 | 161 | 18000 (1984) | 123 (2023) | 2260 | 281 | 492 | 795 | 977 | 1720 | 2870 | 3020 | 4470 | 6200 |
| 2026-05-04 06:30 | 3.34 | 167 | 18000 (1984) | 123 (2023) | 2260 | 281 | 492 | 795 | 977 | 1720 | 2870 | 3020 | 4470 | 6200 |
| 2026-05-04 05:30 | 3.35 | 173 | 18000 (1984) | 123 (2023) | 2260 | 281 | 492 | 795 | 977 | 1720 | 2870 | 3020 | 4470 | 6200 |
| 2026-05-04 04:30 | 3.35 | 173 | 18000 (1984) | 123 (2023) | 2260 | 281 | 492 | 795 | 977 | 1720 | 2870 | 3020 | 4470 | 6200 |
| 2026-05-04 03:30 | 3.35 | 173 | 18000 (1984) | 123 (2023) | 2260 | 281 | 492 | 795 | 977 | 1720 | 2870 | 3020 | 4470 | 6200 |
| 2026-05-04 02:30 | 3.34 | 167 | 18000 (1984) | 123 (2023) | 2260 | 281 | 492 | 795 | 977 | 1720 | 2870 | 3020 | 4470 | 6200 |
| 2026-05-04 01:30 | 3.34 | 167 | 18000 (1984) | 123 (2023) | 2260 | 281 | 492 | 795 | 977 | 1720 | 2870 | 3020 | 4470 | 6200 |
| 2026-05-04 00:30 | 3.33 | 161 | 18000 (1984) | 123 (2023) | 2260 | 281 | 492 | 795 | 977 | 1720 | 2870 | 3020 | 4470 | 6200 |
| 2026-05-03 23:30 | 3.36 | 178 | 18000 (1984) | 123 (2023) | 2260 | 281 | 492 | 795 | 977 | 1720 | 2870 | 3020 | 4470 | 6200 |
| 2026-05-03 22:30 | 3.34 | 167 | 17100 (1984) | 128 (2023) | 2210 | 326 | 500 | 790 | 930 | 1690 | 2800 | 2940 | 4300 | 5560 |
| 2026-05-03 21:30 | 3.34 | 167 | 17100 (1984) | 128 (2023) | 2210 | 326 | 500 | 790 | 930 | 1690 | 2800 | 2940 | 4300 | 5560 |
| 2026-05-03 20:30 | 3.35 | 173 | 17100 (1984) | 128 (2023) | 2210 | 326 | 500 | 790 | 930 | 1690 | 2800 | 2940 | 4300 | 5560 |
| 2026-05-03 19:30 | 3.35 | 173 | 17100 (1984) | 128 (2023) | 2210 | 326 | 500 | 790 | 930 | 1690 | 2800 | 2940 | 4300 | 5560 |
| 2026-05-03 18:30 | 3.36 | 178 | 17100 (1984) | 128 (2023) | 2210 | 326 | 500 | 790 | 930 | 1690 | 2800 | 2940 | 4300 | 5560 |
| 2026-05-03 17:30 | 3.35 | 173 | 17100 (1984) | 128 (2023) | 2210 | 326 | 500 | 790 | 930 | 1690 | 2800 | 2940 | 4300 | 5560 |
| 2026-05-03 16:30 | 3.36 | 178 | 17100 (1984) | 128 (2023) | 2210 | 326 | 500 | 790 | 930 | 1690 | 2800 | 2940 | 4300 | 5560 |
| 2026-05-03 15:30 | 3.36 | 178 | 17100 (1984) | 128 (2023) | 2210 | 326 | 500 | 790 | 930 | 1690 | 2800 | 2940 | 4300 | 5560 |
| 2026-05-03 14:30 | 3.37 | 184 | 17100 (1984) | 128 (2023) | 2210 | 326 | 500 | 790 | 930 | 1690 | 2800 | 2940 | 4300 | 5560 |
| 2026-05-03 13:30 | 3.36 | 178 | 17100 (1984) | 128 (2023) | 2210 | 326 | 500 | 790 | 930 | 1690 | 2800 | 2940 | 4300 | 5560 |
| 2026-05-03 12:30 | 3.35 | 173 | 17100 (1984) | 128 (2023) | 2210 | 326 | 500 | 790 | 930 | 1690 | 2800 | 2940 | 4300 | 5560 |
| 2026-05-03 11:30 | 3.35 | 173 | 17100 (1984) | 128 (2023) | 2210 | 326 | 500 | 790 | 930 | 1690 | 2800 | 2940 | 4300 | 5560 |
| 2026-05-03 10:30 | 3.35 | 173 | 17100 (1984) | 128 (2023) | 2210 | 326 | 500 | 790 | 930 | 1690 | 2800 | 2940 | 4300 | 5560 |
| 2026-05-03 09:30 | 3.34 | 167 | 17100 (1984) | 128 (2023) | 2210 | 326 | 500 | 790 | 930 | 1690 | 2800 | 2940 | 4300 | 5560 |
| 2026-05-03 08:30 | 3.35 | 173 | 17100 (1984) | 128 (2023) | 2210 | 326 | 500 | 790 | 930 | 1690 | 2800 | 2940 | 4300 | 5560 |
| 2026-05-03 07:30 | 3.36 | 178 | 17100 (1984) | 128 (2023) | 2210 | 326 | 500 | 790 | 930 | 1690 | 2800 | 2940 | 4300 | 5560 |
| 2026-05-03 06:30 | 3.37 | 184 | 17100 (1984) | 128 (2023) | 2210 | 326 | 500 | 790 | 930 | 1690 | 2800 | 2940 | 4300 | 5560 |
| 2026-05-03 05:30 | 3.34 | 167 | 17100 (1984) | 128 (2023) | 2210 | 326 | 500 | 790 | 930 | 1690 | 2800 | 2940 | 4300 | 5560 |
| 2026-05-03 04:30 | 3.35 | 173 | 17100 (1984) | 128 (2023) | 2210 | 326 | 500 | 790 | 930 | 1690 | 2800 | 2940 | 4300 | 5560 |
| 2026-05-03 03:30 | 3.36 | 178 | 17100 (1984) | 128 (2023) | 2210 | 326 | 500 | 790 | 930 | 1690 | 2800 | 2940 | 4300 | 5560 |
| 2026-05-03 02:30 | 3.34 | 167 | 17100 (1984) | 128 (2023) | 2210 | 326 | 500 | 790 | 930 | 1690 | 2800 | 2940 | 4300 | 5560 |
| 2026-05-03 01:30 | 3.35 | 173 | 17100 (1984) | 128 (2023) | 2210 | 326 | 500 | 790 | 930 | 1690 | 2800 | 2940 | 4300 | 5560 |
| 2026-05-03 00:30 | 3.35 | 173 | 17100 (1984) | 128 (2023) | 2210 | 326 | 500 | 790 | 930 | 1690 | 2800 | 2940 | 4300 | 5560 |
| 2026-05-02 23:30 | 3.35 | 173 | 17100 (1984) | 128 (2023) | 2210 | 326 | 500 | 790 | 930 | 1690 | 2800 | 2940 | 4300 | 5560 |
| 2026-05-02 22:30 | 3.36 | 178 | 15600 (1984) | 135 (2023) | 2170 | 329 | 428 | 734 | 921 | 1790 | 2610 | 2830 | 4160 | 5870 |
| 2026-05-02 21:30 | 3.37 | 184 | 15600 (1984) | 135 (2023) | 2170 | 329 | 428 | 734 | 921 | 1790 | 2610 | 2830 | 4160 | 5870 |
| 2026-05-02 20:30 | 3.37 | 184 | 15600 (1984) | 135 (2023) | 2170 | 329 | 428 | 734 | 921 | 1790 | 2610 | 2830 | 4160 | 5870 |
| 2026-05-02 19:30 | 3.34 | 167 | 15600 (1984) | 135 (2023) | 2170 | 329 | 428 | 734 | 921 | 1790 | 2610 | 2830 | 4160 | 5870 |
| 2026-05-02 18:30 | 3.35 | 173 | 15600 (1984) | 135 (2023) | 2170 | 329 | 428 | 734 | 921 | 1790 | 2610 | 2830 | 4160 | 5870 |
| 2026-05-02 17:30 | 3.37 | 184 | 15600 (1984) | 135 (2023) | 2170 | 329 | 428 | 734 | 921 | 1790 | 2610 | 2830 | 4160 | 5870 |
| 2026-05-02 16:30 | 3.36 | 178 | 15600 (1984) | 135 (2023) | 2170 | 329 | 428 | 734 | 921 | 1790 | 2610 | 2830 | 4160 | 5870 |
| 2026-05-02 15:30 | 3.36 | 178 | 15600 (1984) | 135 (2023) | 2170 | 329 | 428 | 734 | 921 | 1790 | 2610 | 2830 | 4160 | 5870 |
| 2026-05-02 14:30 | 3.36 | 178 | 15600 (1984) | 135 (2023) | 2170 | 329 | 428 | 734 | 921 | 1790 | 2610 | 2830 | 4160 | 5870 |
| 2026-05-02 13:30 | 3.38 | 190 | 15600 (1984) | 135 (2023) | 2170 | 329 | 428 | 734 | 921 | 1790 | 2610 | 2830 | 4160 | 5870 |
| 2026-05-02 12:30 | 3.37 | 184 | 15600 (1984) | 135 (2023) | 2170 | 329 | 428 | 734 | 921 | 1790 | 2610 | 2830 | 4160 | 5870 |
| 2026-05-02 11:30 | 3.35 | 173 | 15600 (1984) | 135 (2023) | 2170 | 329 | 428 | 734 | 921 | 1790 | 2610 | 2830 | 4160 | 5870 |
| 2026-05-02 10:30 | 3.35 | 173 | 15600 (1984) | 135 (2023) | 2170 | 329 | 428 | 734 | 921 | 1790 | 2610 | 2830 | 4160 | 5870 |
| 2026-05-02 09:30 | 3.37 | 184 | 15600 (1984) | 135 (2023) | 2170 | 329 | 428 | 734 | 921 | 1790 | 2610 | 2830 | 4160 | 5870 |
| 2026-05-02 08:30 | 3.36 | 178 | 15600 (1984) | 135 (2023) | 2170 | 329 | 428 | 734 | 921 | 1790 | 2610 | 2830 | 4160 | 5870 |
| 2026-05-02 07:30 | 3.38 | 190 | 15600 (1984) | 135 (2023) | 2170 | 329 | 428 | 734 | 921 | 1790 | 2610 | 2830 | 4160 | 5870 |
| 2026-05-02 06:30 | 3.36 | 178 | 15600 (1984) | 135 (2023) | 2170 | 329 | 428 | 734 | 921 | 1790 | 2610 | 2830 | 4160 | 5870 |
| 2026-05-02 05:30 | 3.37 | 184 | 15600 (1984) | 135 (2023) | 2170 | 329 | 428 | 734 | 921 | 1790 | 2610 | 2830 | 4160 | 5870 |
| 2026-05-02 04:30 | 3.36 | 178 | 15600 (1984) | 135 (2023) | 2170 | 329 | 428 | 734 | 921 | 1790 | 2610 | 2830 | 4160 | 5870 |
| 2026-05-02 03:30 | 3.37 | 184 | 15600 (1984) | 135 (2023) | 2170 | 329 | 428 | 734 | 921 | 1790 | 2610 | 2830 | 4160 | 5870 |
| 2026-05-02 02:30 | 3.37 | 184 | 15600 (1984) | 135 (2023) | 2170 | 329 | 428 | 734 | 921 | 1790 | 2610 | 2830 | 4160 | 5870 |
| 2026-05-02 01:30 | 3.37 | 184 | 15600 (1984) | 135 (2023) | 2170 | 329 | 428 | 734 | 921 | 1790 | 2610 | 2830 | 4160 | 5870 |
| 2026-05-02 00:30 | 3.36 | 178 | 15600 (1984) | 135 (2023) | 2170 | 329 | 428 | 734 | 921 | 1790 | 2610 | 2830 | 4160 | 5870 |
| 2026-05-01 23:30 | 3.38 | 190 | 15600 (1984) | 135 (2023) | 2170 | 329 | 428 | 734 | 921 | 1790 | 2610 | 2830 | 4160 | 5870 |
| 2026-05-01 22:30 | 3.38 | 190 | 15000 (1984) | 156 (2023) | 2130 | 314 | 467 | 692 | 805 | 1850 | 2430 | 2750 | 4460 | 4800 |
| 2026-05-01 21:30 | 3.37 | 184 | 15000 (1984) | 156 (2023) | 2130 | 314 | 467 | 692 | 805 | 1850 | 2430 | 2750 | 4460 | 4800 |
| 2026-05-01 20:30 | 3.37 | 184 | 15000 (1984) | 156 (2023) | 2130 | 314 | 467 | 692 | 805 | 1850 | 2430 | 2750 | 4460 | 4800 |
| 2026-05-01 19:30 | 3.37 | 184 | 15000 (1984) | 156 (2023) | 2130 | 314 | 467 | 692 | 805 | 1850 | 2430 | 2750 | 4460 | 4800 |
| 2026-05-01 18:30 | 3.37 | 184 | 15000 (1984) | 156 (2023) | 2130 | 314 | 467 | 692 | 805 | 1850 | 2430 | 2750 | 4460 | 4800 |
| 2026-05-01 17:30 | 3.38 | 190 | 15000 (1984) | 156 (2023) | 2130 | 314 | 467 | 692 | 805 | 1850 | 2430 | 2750 | 4460 | 4800 |
| 2026-05-01 16:30 | 3.39 | 197 | 15000 (1984) | 156 (2023) | 2130 | 314 | 467 | 692 | 805 | 1850 | 2430 | 2750 | 4460 | 4800 |
| 2026-05-01 15:30 | 3.39 | 197 | 15000 (1984) | 156 (2023) | 2130 | 314 | 467 | 692 | 805 | 1850 | 2430 | 2750 | 4460 | 4800 |
| 2026-05-01 14:30 | 3.39 | 197 | 15000 (1984) | 156 (2023) | 2130 | 314 | 467 | 692 | 805 | 1850 | 2430 | 2750 | 4460 | 4800 |
| 2026-05-01 13:30 | 3.39 | 197 | 15000 (1984) | 156 (2023) | 2130 | 314 | 467 | 692 | 805 | 1850 | 2430 | 2750 | 4460 | 4800 |
| 2026-05-01 12:30 | 3.39 | 197 | 15000 (1984) | 156 (2023) | 2130 | 314 | 467 | 692 | 805 | 1850 | 2430 | 2750 | 4460 | 4800 |
| 2026-05-01 11:30 | 3.41 | 209 | 15000 (1984) | 156 (2023) | 2130 | 314 | 467 | 692 | 805 | 1850 | 2430 | 2750 | 4460 | 4800 |
| 2026-05-01 10:30 | 3.41 | 209 | 15000 (1984) | 156 (2023) | 2130 | 314 | 467 | 692 | 805 | 1850 | 2430 | 2750 | 4460 | 4800 |
| 2026-05-01 09:30 | 3.40 | 203 | 15000 (1984) | 156 (2023) | 2130 | 314 | 467 | 692 | 805 | 1850 | 2430 | 2750 | 4460 | 4800 |
| 2026-05-01 08:30 | 3.41 | 209 | 15000 (1984) | 156 (2023) | 2130 | 314 | 467 | 692 | 805 | 1850 | 2430 | 2750 | 4460 | 4800 |
| 2026-05-01 07:30 | 3.41 | 209 | 15000 (1984) | 156 (2023) | 2130 | 314 | 467 | 692 | 805 | 1850 | 2430 | 2750 | 4460 | 4800 |
| 2026-05-01 06:30 | 3.41 | 209 | 15000 (1984) | 156 (2023) | 2130 | 314 | 467 | 692 | 805 | 1850 | 2430 | 2750 | 4460 | 4800 |
| 2026-05-01 05:30 | 3.41 | 209 | 15000 (1984) | 156 (2023) | 2130 | 314 | 467 | 692 | 805 | 1850 | 2430 | 2750 | 4460 | 4800 |
| 2026-05-01 04:30 | 3.42 | 216 | 15000 (1984) | 156 (2023) | 2130 | 314 | 467 | 692 | 805 | 1850 | 2430 | 2750 | 4460 | 4800 |
| 2026-05-01 03:30 | 3.42 | 216 | 15000 (1984) | 156 (2023) | 2130 | 314 | 467 | 692 | 805 | 1850 | 2430 | 2750 | 4460 | 4800 |
| 2026-05-01 02:30 | 3.42 | 216 | 15000 (1984) | 156 (2023) | 2130 | 314 | 467 | 692 | 805 | 1850 | 2430 | 2750 | 4460 | 4800 |
| 2026-05-01 01:30 | 3.42 | 216 | 15000 (1984) | 156 (2023) | 2130 | 314 | 467 | 692 | 805 | 1850 | 2430 | 2750 | 4460 | 4800 |
| 2026-05-01 00:30 | 3.42 | 216 | 15000 (1984) | 156 (2023) | 2130 | 314 | 467 | 692 | 805 | 1850 | 2430 | 2750 | 4460 | 4800 |
| 2026-04-30 23:30 | 3.42 | 216 | 15000 (1984) | 156 (2023) | 2130 | 314 | 467 | 692 | 805 | 1850 | 2430 | 2750 | 4460 | 4800 |
| 2026-04-30 22:30 | 3.42 | 216 | 13600 (1984) | 176 (2023) | 2140 | 385 | 526 | 734 | 850 | 1830 | 2650 | 2980 | 4490 | 5030 |
| 2026-04-30 21:30 | 3.42 | 216 | 13600 (1984) | 176 (2023) | 2140 | 385 | 526 | 734 | 850 | 1830 | 2650 | 2980 | 4490 | 5030 |
| 2026-04-30 20:30 | 3.42 | 216 | 13600 (1984) | 176 (2023) | 2140 | 385 | 526 | 734 | 850 | 1830 | 2650 | 2980 | 4490 | 5030 |
| 2026-04-30 19:30 | 3.42 | 216 | 13600 (1984) | 176 (2023) | 2140 | 385 | 526 | 734 | 850 | 1830 | 2650 | 2980 | 4490 | 5030 |
| 2026-04-30 18:30 | 3.43 | 222 | 13600 (1984) | 176 (2023) | 2140 | 385 | 526 | 734 | 850 | 1830 | 2650 | 2980 | 4490 | 5030 |
| 2026-04-30 17:30 | 3.43 | 222 | 13600 (1984) | 176 (2023) | 2140 | 385 | 526 | 734 | 850 | 1830 | 2650 | 2980 | 4490 | 5030 |
| 2026-04-30 16:30 | 3.43 | 222 | 13600 (1984) | 176 (2023) | 2140 | 385 | 526 | 734 | 850 | 1830 | 2650 | 2980 | 4490 | 5030 |
| 2026-04-30 15:30 | 3.43 | 222 | 13600 (1984) | 176 (2023) | 2140 | 385 | 526 | 734 | 850 | 1830 | 2650 | 2980 | 4490 | 5030 |
| 2026-04-30 14:30 | 3.43 | 222 | 13600 (1984) | 176 (2023) | 2140 | 385 | 526 | 734 | 850 | 1830 | 2650 | 2980 | 4490 | 5030 |
| 2026-04-30 13:30 | 3.44 | 229 | 13600 (1984) | 176 (2023) | 2140 | 385 | 526 | 734 | 850 | 1830 | 2650 | 2980 | 4490 | 5030 |
| 2026-04-30 12:30 | 3.43 | 222 | 13600 (1984) | 176 (2023) | 2140 | 385 | 526 | 734 | 850 | 1830 | 2650 | 2980 | 4490 | 5030 |
| 2026-04-30 11:30 | 3.41 | 209 | 13600 (1984) | 176 (2023) | 2140 | 385 | 526 | 734 | 850 | 1830 | 2650 | 2980 | 4490 | 5030 |
| 2026-04-30 10:30 | 3.43 | 222 | 13600 (1984) | 176 (2023) | 2140 | 385 | 526 | 734 | 850 | 1830 | 2650 | 2980 | 4490 | 5030 |
| 2026-04-30 09:30 | 3.43 | 222 | 13600 (1984) | 176 (2023) | 2140 | 385 | 526 | 734 | 850 | 1830 | 2650 | 2980 | 4490 | 5030 |
| 2026-04-30 08:30 | 3.44 | 229 | 13600 (1984) | 176 (2023) | 2140 | 385 | 526 | 734 | 850 | 1830 | 2650 | 2980 | 4490 | 5030 |
| 2026-04-30 07:30 | 3.44 | 229 | 13600 (1984) | 176 (2023) | 2140 | 385 | 526 | 734 | 850 | 1830 | 2650 | 2980 | 4490 | 5030 |
| 2026-04-30 06:30 | 3.44 | 229 | 13600 (1984) | 176 (2023) | 2140 | 385 | 526 | 734 | 850 | 1830 | 2650 | 2980 | 4490 | 5030 |
| 2026-04-30 05:30 | 3.44 | 229 | 13600 (1984) | 176 (2023) | 2140 | 385 | 526 | 734 | 850 | 1830 | 2650 | 2980 | 4490 | 5030 |
| 2026-04-30 04:30 | 3.44 | 229 | 13600 (1984) | 176 (2023) | 2140 | 385 | 526 | 734 | 850 | 1830 | 2650 | 2980 | 4490 | 5030 |
| 2026-04-30 03:30 | 3.44 | 229 | 13600 (1984) | 176 (2023) | 2140 | 385 | 526 | 734 | 850 | 1830 | 2650 | 2980 | 4490 | 5030 |
| 2026-04-30 02:30 | 3.44 | 229 | 13600 (1984) | 176 (2023) | 2140 | 385 | 526 | 734 | 850 | 1830 | 2650 | 2980 | 4490 | 5030 |
| 2026-04-30 01:30 | 3.44 | 229 | 13600 (1984) | 176 (2023) | 2140 | 385 | 526 | 734 | 850 | 1830 | 2650 | 2980 | 4490 | 5030 |
| 2026-04-30 00:30 | 3.44 | 229 | 13600 (1984) | 176 (2023) | 2140 | 385 | 526 | 734 | 850 | 1830 | 2650 | 2980 | 4490 | 5030 |
| 2026-04-29 23:30 | 3.44 | 229 | 13600 (1984) | 176 (2023) | 2140 | 385 | 526 | 734 | 850 | 1830 | 2650 | 2980 | 4490 | 5030 |
| 2026-04-29 22:30 | 3.44 | 229 | 11200 (1984) | 219 (2023) | 2140 | 364 | 545 | 798 | 939 | 1750 | 2730 | 3060 | 4670 | 5260 |
| 2026-04-29 21:30 | 3.44 | 229 | 11200 (1984) | 219 (2023) | 2140 | 364 | 545 | 798 | 939 | 1750 | 2730 | 3060 | 4670 | 5260 |
| 2026-04-29 20:30 | 3.44 | 229 | 11200 (1984) | 219 (2023) | 2140 | 364 | 545 | 798 | 939 | 1750 | 2730 | 3060 | 4670 | 5260 |
| 2026-04-29 19:30 | 3.44 | 229 | 11200 (1984) | 219 (2023) | 2140 | 364 | 545 | 798 | 939 | 1750 | 2730 | 3060 | 4670 | 5260 |
| 2026-04-29 18:30 | 3.44 | 229 | 11200 (1984) | 219 (2023) | 2140 | 364 | 545 | 798 | 939 | 1750 | 2730 | 3060 | 4670 | 5260 |
| 2026-04-29 17:30 | 3.44 | 229 | 11200 (1984) | 219 (2023) | 2140 | 364 | 545 | 798 | 939 | 1750 | 2730 | 3060 | 4670 | 5260 |
| 2026-04-29 16:30 | 3.45 | 236 | 11200 (1984) | 219 (2023) | 2140 | 364 | 545 | 798 | 939 | 1750 | 2730 | 3060 | 4670 | 5260 |
| 2026-04-29 15:30 | 3.44 | 229 | 11200 (1984) | 219 (2023) | 2140 | 364 | 545 | 798 | 939 | 1750 | 2730 | 3060 | 4670 | 5260 |
| 2026-04-29 14:30 | 3.44 | 229 | 11200 (1984) | 219 (2023) | 2140 | 364 | 545 | 798 | 939 | 1750 | 2730 | 3060 | 4670 | 5260 |
| 2026-04-29 13:30 | 3.44 | 229 | 11200 (1984) | 219 (2023) | 2140 | 364 | 545 | 798 | 939 | 1750 | 2730 | 3060 | 4670 | 5260 |
| 2026-04-29 12:30 | 3.44 | 229 | 11200 (1984) | 219 (2023) | 2140 | 364 | 545 | 798 | 939 | 1750 | 2730 | 3060 | 4670 | 5260 |
| 2026-04-29 11:30 | 3.44 | 229 | 11200 (1984) | 219 (2023) | 2140 | 364 | 545 | 798 | 939 | 1750 | 2730 | 3060 | 4670 | 5260 |
| 2026-04-29 10:30 | 3.44 | 229 | 11200 (1984) | 219 (2023) | 2140 | 364 | 545 | 798 | 939 | 1750 | 2730 | 3060 | 4670 | 5260 |
| 2026-04-29 09:30 | 3.44 | 229 | 11200 (1984) | 219 (2023) | 2140 | 364 | 545 | 798 | 939 | 1750 | 2730 | 3060 | 4670 | 5260 |
| 2026-04-29 08:30 | 3.44 | 229 | 11200 (1984) | 219 (2023) | 2140 | 364 | 545 | 798 | 939 | 1750 | 2730 | 3060 | 4670 | 5260 |
| 2026-04-29 07:30 | 3.45 | 236 | 11200 (1984) | 219 (2023) | 2140 | 364 | 545 | 798 | 939 | 1750 | 2730 | 3060 | 4670 | 5260 |
| 2026-04-29 06:30 | 3.45 | 236 | 11200 (1984) | 219 (2023) | 2140 | 364 | 545 | 798 | 939 | 1750 | 2730 | 3060 | 4670 | 5260 |
| 2026-04-29 05:30 | 3.45 | 236 | 11200 (1984) | 219 (2023) | 2140 | 364 | 545 | 798 | 939 | 1750 | 2730 | 3060 | 4670 | 5260 |
| 2026-04-29 04:30 | 3.45 | 236 | 11200 (1984) | 219 (2023) | 2140 | 364 | 545 | 798 | 939 | 1750 | 2730 | 3060 | 4670 | 5260 |
| 2026-04-29 03:30 | 3.44 | 229 | 11200 (1984) | 219 (2023) | 2140 | 364 | 545 | 798 | 939 | 1750 | 2730 | 3060 | 4670 | 5260 |
| 2026-04-29 02:30 | 3.45 | 236 | 11200 (1984) | 219 (2023) | 2140 | 364 | 545 | 798 | 939 | 1750 | 2730 | 3060 | 4670 | 5260 |
| 2026-04-29 01:30 | 3.45 | 236 | 11200 (1984) | 219 (2023) | 2140 | 364 | 545 | 798 | 939 | 1750 | 2730 | 3060 | 4670 | 5260 |
| 2026-04-29 00:30 | 3.44 | 229 | 11200 (1984) | 219 (2023) | 2140 | 364 | 545 | 798 | 939 | 1750 | 2730 | 3060 | 4670 | 5260 |
| 2026-04-28 23:30 | 3.44 | 229 | 11200 (1984) | 219 (2023) | 2140 | 364 | 545 | 798 | 939 | 1750 | 2730 | 3060 | 4670 | 5260 |
| 2026-04-28 22:30 | 3.45 | 236 | 11600 (1984) | 249 (1946) | 2190 | 360 | 522 | 764 | 914 | 1730 | 2900 | 3100 | 4630 | 6130 |
| 2026-04-28 21:30 | 3.45 | 236 | 11600 (1984) | 249 (1946) | 2190 | 360 | 522 | 764 | 914 | 1730 | 2900 | 3100 | 4630 | 6130 |
| 2026-04-28 20:30 | 3.45 | 236 | 11600 (1984) | 249 (1946) | 2190 | 360 | 522 | 764 | 914 | 1730 | 2900 | 3100 | 4630 | 6130 |
| 2026-04-28 19:30 | 3.45 | 236 | 11600 (1984) | 249 (1946) | 2190 | 360 | 522 | 764 | 914 | 1730 | 2900 | 3100 | 4630 | 6130 |
| 2026-04-28 18:30 | 3.45 | 236 | 11600 (1984) | 249 (1946) | 2190 | 360 | 522 | 764 | 914 | 1730 | 2900 | 3100 | 4630 | 6130 |
| 2026-04-28 17:30 | 3.45 | 236 | 11600 (1984) | 249 (1946) | 2190 | 360 | 522 | 764 | 914 | 1730 | 2900 | 3100 | 4630 | 6130 |
| 2026-04-28 16:30 | 3.45 | 236 | 11600 (1984) | 249 (1946) | 2190 | 360 | 522 | 764 | 914 | 1730 | 2900 | 3100 | 4630 | 6130 |
| 2026-04-28 15:30 | 3.45 | 236 | 11600 (1984) | 249 (1946) | 2190 | 360 | 522 | 764 | 914 | 1730 | 2900 | 3100 | 4630 | 6130 |
| 2026-04-28 14:30 | 3.45 | 236 | 11600 (1984) | 249 (1946) | 2190 | 360 | 522 | 764 | 914 | 1730 | 2900 | 3100 | 4630 | 6130 |
| 2026-04-28 13:30 | 3.46 | 243 | 11600 (1984) | 249 (1946) | 2190 | 360 | 522 | 764 | 914 | 1730 | 2900 | 3100 | 4630 | 6130 |
| 2026-04-28 12:30 | 3.46 | 243 | 11600 (1984) | 249 (1946) | 2190 | 360 | 522 | 764 | 914 | 1730 | 2900 | 3100 | 4630 | 6130 |
| 2026-04-28 11:30 | 3.46 | 243 | 11600 (1984) | 249 (1946) | 2190 | 360 | 522 | 764 | 914 | 1730 | 2900 | 3100 | 4630 | 6130 |
| 2026-04-28 10:30 | 3.46 | 243 | 11600 (1984) | 249 (1946) | 2190 | 360 | 522 | 764 | 914 | 1730 | 2900 | 3100 | 4630 | 6130 |
| 2026-04-28 09:30 | 3.46 | 243 | 11600 (1984) | 249 (1946) | 2190 | 360 | 522 | 764 | 914 | 1730 | 2900 | 3100 | 4630 | 6130 |
| 2026-04-28 08:30 | 3.47 | 250 | 11600 (1984) | 249 (1946) | 2190 | 360 | 522 | 764 | 914 | 1730 | 2900 | 3100 | 4630 | 6130 |
| 2026-04-28 07:30 | 3.47 | 250 | 11600 (1984) | 249 (1946) | 2190 | 360 | 522 | 764 | 914 | 1730 | 2900 | 3100 | 4630 | 6130 |
| 2026-04-28 06:30 | 3.47 | 250 | 11600 (1984) | 249 (1946) | 2190 | 360 | 522 | 764 | 914 | 1730 | 2900 | 3100 | 4630 | 6130 |
| 2026-04-28 05:30 | 3.46 | 243 | 11600 (1984) | 249 (1946) | 2190 | 360 | 522 | 764 | 914 | 1730 | 2900 | 3100 | 4630 | 6130 |
| 2026-04-28 04:30 | 3.47 | 250 | 11600 (1984) | 249 (1946) | 2190 | 360 | 522 | 764 | 914 | 1730 | 2900 | 3100 | 4630 | 6130 |
| 2026-04-28 03:30 | 3.47 | 250 | 11600 (1984) | 249 (1946) | 2190 | 360 | 522 | 764 | 914 | 1730 | 2900 | 3100 | 4630 | 6130 |
| 2026-04-28 02:30 | 3.47 | 250 | 11600 (1984) | 249 (1946) | 2190 | 360 | 522 | 764 | 914 | 1730 | 2900 | 3100 | 4630 | 6130 |
| 2026-04-28 01:30 | 3.47 | 250 | 11600 (1984) | 249 (1946) | 2190 | 360 | 522 | 764 | 914 | 1730 | 2900 | 3100 | 4630 | 6130 |
| 2026-04-28 00:30 | 3.47 | 250 | 11600 (1984) | 249 (1946) | 2190 | 360 | 522 | 764 | 914 | 1730 | 2900 | 3100 | 4630 | 6130 |
| 2026-04-27 23:30 | 3.46 | 243 | 11600 (1984) | 249 (1946) | 2190 | 360 | 522 | 764 | 914 | 1730 | 2900 | 3100 | 4630 | 6130 |
A total of 179 rows are displayed for years 1942 through 2025.